Terminal Aerodrome Forecast
Issued by NWS Blacksburg, VA

Current Version | Previous Version | Graphics & Text | Print | Product List | Glossary On
Versions: 1 2 3 4 5 6 7 8 9 10 11 12 13
000
FTUS41 KRNK 182320
TAFBLF
TAF
KBLF 182320Z 1900/1924 30006KT P6SM OVC015
     FM190600 VRB03KT P6SM SCT010
     FM191300 20003KT P6SM FEW150=

USA.gov is the U.S. government's official web portal to all federal, state and local government web resources and services.